Key Colony Beach, Florida
Current Conditions -  °F | °C
As of 8:53 AM on Tuesday 27 Jan 2015 (Local Time) from KMTH Reporting Station
Few Clouds Few Clouds  
Wind Chill: 67°   Ceiling: Unl
Heat Index: 67°   Visibility: 10mi
Dew Point: 54°   Wind: 9mph
Humidity: 63%   Direction: 320°NW
Pressure: 30.06"   Gusts: 16mph
Location:  24.72°N, 81.02°W
Report Text: KMTH 271353Z AUTO 32008G14KT 10SM FEW040 19/12 A3006 RMK AO2 SLP179 T01940122
Loading
Personal Weather Stations






























Interactive Weather Map New forecast layout! Learn more

10-Day Weather Forecast

Advertisements
Track Severe Weather on mobile